Time;durP1;ratioP1;P1;durP2;ratioP2;P2;SDS_P1;SDS_P2;PMS_P1;PMS_P2;Temp;Humidity;BMP_temperature;BMP_pressure;BME280_temperature;BME280_humidity;BME280_pressure;Samples;Min_cycle;Max_cycle;Signal;HPM_P1;HPM_P2
2023/03/13 00:00:17;;;;;;;25.60;5.10;;;;;;;;;;4972988;28;20050;-78
2023/03/13 00:02:46;;;;;;;39.53;6.20;;;;;;;;;;4984918;28;20046;-79
2023/03/13 00:05:12;;;;;;;31.85;5.18;;;;;;;;;;4977690;28;20457;-78
2023/03/13 00:07:38;;;;;;;33.30;6.15;;;;;;;;;;4990995;28;20456;-78
2023/03/13 00:10:05;;;;;;;32.35;5.30;;;;;;;;;;4994689;28;20042;-78
2023/03/13 00:12:31;;;;;;;30.33;5.43;;;;;;;;;;4995102;28;20042;-78
2023/03/13 00:14:57;;;;;;;33.50;5.18;;;;;;;;;;5006457;28;20099;-76
2023/03/13 00:17:23;;;;;;;31.55;5.45;;;;;;;;;;4995766;28;20374;-76
2023/03/13 00:19:50;;;;;;;32.30;5.88;;;;;;;;;;4994318;28;20042;-76
2023/03/13 00:22:16;;;;;;;32.35;6.03;;;;;;;;;;4978324;28;20370;-76
2023/03/13 00:24:42;;;;;;;39.47;7.15;;;;;;;;;;4994234;28;20054;-77
2023/03/13 00:27:08;;;;;;;31.67;5.22;;;;;;;;;;4994461;28;20073;-76
2023/03/13 00:29:34;;;;;;;32.20;5.90;;;;;;;;;;4978218;28;20098;-76
2023/03/13 00:32:00;;;;;;;32.75;5.75;;;;;;;;;;4994363;28;20069;-76
2023/03/13 00:34:27;;;;;;;39.85;7.32;;;;;;;;;;4994801;28;20489;-76
2023/03/13 00:36:54;;;;;;;32.00;4.82;;;;;;;;;;4993921;28;20117;-78
2023/03/13 00:39:21;;;;;;;27.00;5.60;;;;;;;;;;4994502;28;20077;-76
2023/03/13 00:41:47;;;;;;;38.03;5.93;;;;;;;;;;4993973;28;20124;-77
2023/03/13 00:44:15;;;;;;;24.30;5.90;;;;;;;;;;4995708;28;20042;-77
2023/03/13 00:46:41;;;;;;;29.25;6.00;;;;;;;;;;4977702;28;20481;-77
2023/03/13 00:49:07;;;;;;;38.00;6.63;;;;;;;;;;4994364;28;20441;-77
2023/03/13 00:51:33;;;;;;;32.63;5.93;;;;;;;;;;5007721;28;20093;-77
2023/03/13 00:53:59;;;;;;;34.92;6.20;;;;;;;;;;4993466;28;20508;-77
2023/03/13 00:56:26;;;;;;;28.05;6.25;;;;;;;;;;4993844;28;20078;-77
2023/03/13 00:58:52;;;;;;;25.25;5.78;;;;;;;;;;4993982;28;20042;-77
2023/03/13 01:01:20;;;;;;;30.08;5.70;;;;;;;;;;4997411;28;20046;-77
2023/03/13 01:03:47;;;;;;;35.92;6.85;;;;;;;;;;4993554;28;20042;-77
2023/03/13 01:06:15;;;;;;;32.38;6.00;;;;;;;;;;4994129;28;20401;-77
2023/03/13 01:08:41;;;;;;;28.35;5.78;;;;;;;;;;4998140;28;20042;-77
2023/03/13 01:11:09;;;;;;;32.33;6.00;;;;;;;;;;5002886;28;20462;-77
2023/03/13 01:13:35;;;;;;;29.02;5.15;;;;;;;;;;4993605;28;20088;-76
2023/03/13 01:16:02;;;;;;;30.95;5.45;;;;;;;;;;4977126;28;20042;-77
2023/03/13 01:18:28;;;;;;;26.60;5.05;;;;;;;;;;5013094;28;20034;-77
2023/03/13 01:20:54;;;;;;;35.40;6.22;;;;;;;;;;5012035;28;20485;-79
2023/03/13 01:23:21;;;;;;;30.10;5.47;;;;;;;;;;5013306;28;20382;-79
2023/03/13 01:25:47;;;;;;;28.85;5.07;;;;;;;;;;5012659;28;20509;-77
2023/03/13 01:28:13;;;;;;;30.92;6.88;;;;;;;;;;4998258;28;20034;-77
2023/03/13 01:30:39;;;;;;;26.08;5.15;;;;;;;;;;4993682;28;20460;-77
2023/03/13 01:33:05;;;;;;;26.48;5.63;;;;;;;;;;4977164;28;20390;-76
2023/03/13 01:35:31;;;;;;;30.52;5.88;;;;;;;;;;5004500;28;20096;-77
2023/03/13 01:37:57;;;;;;;29.17;5.18;;;;;;;;;;4995112;28;20050;-76
2023/03/13 01:40:23;;;;;;;29.38;5.47;;;;;;;;;;4993384;28;20060;-77
2023/03/13 01:42:53;;;;;;;30.73;5.45;;;;;;;;;;4994229;28;20097;-79
2023/03/13 01:45:46;;;;;;;31.42;5.47;;;;;;;;;;4996372;28;20049;-79
2023/03/13 01:48:12;;;;;;;27.77;5.40;;;;;;;;;;4979219;28;20042;-77
2023/03/13 01:50:38;;;;;;;33.78;6.13;;;;;;;;;;4993056;28;20054;-77
2023/03/13 01:53:04;;;;;;;24.25;5.15;;;;;;;;;;4976252;28;20348;-78
2023/03/13 01:55:30;;;;;;;23.42;4.93;;;;;;;;;;4993002;28;20054;-79
2023/03/13 01:57:56;;;;;;;32.08;7.13;;;;;;;;;;4976438;28;20050;-77
2023/03/13 02:00:24;;;;;;;30.40;6.22;;;;;;;;;;4947703;28;20127;-79
2023/03/13 02:02:53;;;;;;;30.75;5.90;;;;;;;;;;4992458;28;20378;-77
2023/03/13 02:05:21;;;;;;;26.38;5.72;;;;;;;;;;4993015;28;20413;-80
2023/03/13 02:07:50;;;;;;;28.80;6.78;;;;;;;;;;5005625;28;20561;-77
2023/03/13 02:10:17;;;;;;;28.35;6.03;;;;;;;;;;4992649;28;20401;-77
2023/03/13 02:12:43;;;;;;;26.15;6.60;;;;;;;;;;4976658;28;20070;-77
2023/03/13 02:15:14;;;;;;;24.17;5.43;;;;;;;;;;4998775;28;20089;-77
2023/03/13 02:17:41;;;;;;;21.75;6.00;;;;;;;;;;4976046;28;20047;-77
2023/03/13 02:20:07;;;;;;;23.52;6.50;;;;;;;;;;4993567;28;20400;-79
2023/03/13 02:22:33;;;;;;;21.77;6.38;;;;;;;;;;4992174;28;20121;-79
2023/03/13 02:25:23;;;;;;;21.00;5.65;;;;;;;;;;4992116;28;20497;-78
2023/03/13 02:27:54;;;;;;;25.38;6.43;;;;;;;;;;4955974;28;20042;-79
2023/03/13 02:30:20;;;;;;;25.30;5.97;;;;;;;;;;4992353;28;20052;-79
2023/03/13 02:32:46;;;;;;;20.42;5.93;;;;;;;;;;5005922;28;20497;-79
2023/03/13 02:35:14;;;;;;;21.42;6.00;;;;;;;;;;5000030;28;20050;-79
2023/03/13 02:37:41;;;;;;;17.10;5.97;;;;;;;;;;4998578;28;20450;-79
2023/03/13 02:40:13;;;;;;;20.60;6.03;;;;;;;;;;4991826;28;20100;-79
2023/03/13 02:42:40;;;;;;;19.27;6.78;;;;;;;;;;4975847;28;20042;-79
2023/03/13 02:45:07;;;;;;;15.50;6.07;;;;;;;;;;4991548;28;20042;-78
2023/03/13 02:47:33;;;;;;;18.75;5.80;;;;;;;;;;4992070;28;20121;-78
2023/03/13 02:49:59;;;;;;;17.83;6.20;;;;;;;;;;4991845;28;20054;-77
2023/03/13 02:52:27;;;;;;;12.85;5.60;;;;;;;;;;4985347;28;20042;-77
2023/03/13 02:54:56;;;;;;;16.83;5.80;;;;;;;;;;4995194;28;20121;-78
2023/03/13 02:57:22;;;;;;;13.23;5.50;;;;;;;;;;4992933;28;20464;-77
2023/03/13 02:59:48;;;;;;;13.80;5.78;;;;;;;;;;5004637;28;20049;-77
2023/03/13 03:02:14;;;;;;;12.80;5.25;;;;;;;;;;4972932;28;20053;-77
2023/03/13 03:04:40;;;;;;;11.95;5.82;;;;;;;;;;4969042;28;20092;-77
2023/03/13 03:07:07;;;;;;;14.32;5.45;;;;;;;;;;4984850;28;20567;-77
2023/03/13 03:09:33;;;;;;;12.55;5.15;;;;;;;;;;4975386;28;20038;-77
2023/03/13 03:11:59;;;;;;;15.05;6.25;;;;;;;;;;4996694;28;20121;-77
2023/03/13 03:14:25;;;;;;;12.02;5.18;;;;;;;;;;4986224;28;20561;-77
2023/03/13 03:16:51;;;;;;;12.43;5.43;;;;;;;;;;4998218;28;20481;-77
2023/03/13 03:19:17;;;;;;;13.55;6.22;;;;;;;;;;5010644;28;20049;-77
2023/03/13 03:21:43;;;;;;;13.45;6.13;;;;;;;;;;5011357;28;20135;-77
2023/03/13 03:24:09;;;;;;;13.88;6.35;;;;;;;;;;5011008;28;20550;-77
2023/03/13 03:26:36;;;;;;;17.85;6.72;;;;;;;;;;5012104;28;20042;-77
2023/03/13 03:29:02;;;;;;;11.48;6.47;;;;;;;;;;4994409;28;20354;-77
2023/03/13 03:31:29;;;;;;;13.48;6.43;;;;;;;;;;5011344;28;20382;-78
2023/03/13 03:33:56;;;;;;;13.15;6.10;;;;;;;;;;5011035;28;20042;-77
2023/03/13 03:36:23;;;;;;;16.27;6.07;;;;;;;;;;5012201;28;20424;-79
2023/03/13 03:38:49;;;;;;;14.07;6.68;;;;;;;;;;4994663;28;20496;-79
2023/03/13 03:41:16;;;;;;;15.20;7.28;;;;;;;;;;5010833;28;20042;-79
2023/03/13 03:43:42;;;;;;;14.15;7.13;;;;;;;;;;5012476;28;20038;-77
2023/03/13 03:46:09;;;;;;;14.57;7.00;;;;;;;;;;4982232;28;20103;-77
2023/03/13 03:48:35;;;;;;;14.82;7.00;;;;;;;;;;5014637;28;20046;-77
2023/03/13 03:51:01;;;;;;;15.23;7.78;;;;;;;;;;5014879;28;20370;-77
2023/03/13 03:53:27;;;;;;;14.75;7.50;;;;;;;;;;4998123;28;20119;-77
2023/03/13 03:55:54;;;;;;;14.93;7.45;;;;;;;;;;5014863;28;20129;-77
2023/03/13 03:58:20;;;;;;;12.55;6.93;;;;;;;;;;5005320;28;20046;-77
2023/03/13 04:00:47;;;;;;;16.65;8.20;;;;;;;;;;5000766;28;20094;-78
2023/03/13 04:03:14;;;;;;;14.88;8.27;;;;;;;;;;5000386;28;20050;-77
2023/03/13 04:05:40;;;;;;;15.55;7.93;;;;;;;;;;5014762;28;20415;-77
2023/03/13 04:08:07;;;;;;;16.42;8.38;;;;;;;;;;5004706;28;20125;-77
2023/03/13 04:10:33;;;;;;;14.82;8.27;;;;;;;;;;5010587;28;20038;-77
2023/03/13 04:12:59;;;;;;;17.25;8.85;;;;;;;;;;4998175;28;20038;-79
2023/03/13 04:15:25;;;;;;;19.17;9.98;;;;;;;;;;5014036;28;20099;-80
2023/03/13 04:17:51;;;;;;;18.80;9.57;;;;;;;;;;5002060;28;20091;-79
2023/03/13 04:20:17;;;;;;;19.25;10.65;;;;;;;;;;5013994;28;20048;-79
2023/03/13 04:22:44;;;;;;;20.30;10.77;;;;;;;;;;4984416;28;20034;-79
2023/03/13 04:25:10;;;;;;;21.23;10.98;;;;;;;;;;5013904;28;20065;-80
2023/03/13 04:27:36;;;;;;;22.23;11.25;;;;;;;;;;4997905;28;20481;-81
2023/03/13 04:30:03;;;;;;;24.02;11.27;;;;;;;;;;5013902;28;20042;-81
2023/03/13 04:32:29;;;;;;;27.38;12.40;;;;;;;;;;5000601;28;20489;-80
2023/03/13 04:34:55;;;;;;;25.35;12.70;;;;;;;;;;4959198;28;20043;-80
2023/03/13 04:37:21;;;;;;;20.67;11.93;;;;;;;;;;4998628;28;20046;-80
2023/03/13 04:39:48;;;;;;;22.17;11.48;;;;;;;;;;5013764;28;20081;-81
2023/03/13 04:42:14;;;;;;;25.80;12.55;;;;;;;;;;5014005;28;20381;-80
2023/03/13 04:44:40;;;;;;;23.67;12.90;;;;;;;;;;5014777;28;20049;-80
2023/03/13 04:47:06;;;;;;;25.35;12.30;;;;;;;;;;5013769;28;20045;-80
2023/03/13 04:49:33;;;;;;;24.58;12.60;;;;;;;;;;4997328;28;20040;-80
2023/03/13 04:51:59;;;;;;;22.00;10.95;;;;;;;;;;4997429;28;20042;-80
2023/03/13 04:54:25;;;;;;;19.30;11.25;;;;;;;;;;5013194;28;20068;-80
2023/03/13 04:56:52;;;;;;;22.10;10.48;;;;;;;;;;4967916;28;20520;-80
2023/03/13 04:59:18;;;;;;;17.67;9.38;;;;;;;;;;5012941;28;20122;-80
2023/03/13 05:01:44;;;;;;;19.70;10.20;;;;;;;;;;4993452;28;20049;-80
2023/03/13 05:04:10;;;;;;;18.40;9.20;;;;;;;;;;4977200;28;20508;-80
2023/03/13 05:06:37;;;;;;;14.13;8.48;;;;;;;;;;5007857;28;20053;-81
2023/03/13 05:09:03;;;;;;;18.58;8.55;;;;;;;;;;4997464;28;20084;-80
2023/03/13 05:11:29;;;;;;;14.68;7.20;;;;;;;;;;5014451;28;20045;-80
2023/03/13 05:13:55;;;;;;;13.45;7.47;;;;;;;;;;5013331;28;20120;-81
2023/03/13 05:16:22;;;;;;;11.02;6.80;;;;;;;;;;5014167;28;20480;-80
2023/03/13 05:18:48;;;;;;;12.15;7.00;;;;;;;;;;5013046;28;20050;-80
2023/03/13 05:21:14;;;;;;;12.52;6.93;;;;;;;;;;5012843;28;20081;-80
2023/03/13 05:23:40;;;;;;;13.50;7.32;;;;;;;;;;5013156;28;20404;-81
2023/03/13 05:26:06;;;;;;;11.30;6.68;;;;;;;;;;5013330;28;20053;-80
2023/03/13 05:28:32;;;;;;;12.80;6.15;;;;;;;;;;5013005;28;20044;-81
2023/03/13 05:30:58;;;;;;;9.98;6.00;;;;;;;;;;5012865;28;20200;-81
2023/03/13 05:33:24;;;;;;;10.70;6.55;;;;;;;;;;5013016;28;20554;-80
2023/03/13 05:35:50;;;;;;;10.88;6.13;;;;;;;;;;5012747;28;20044;-80
2023/03/13 05:38:17;;;;;;;9.10;6.00;;;;;;;;;;5012536;28;20041;-81
2023/03/13 05:40:43;;;;;;;11.57;5.93;;;;;;;;;;5013820;28;20489;-81
2023/03/13 05:43:09;;;;;;;13.00;6.60;;;;;;;;;;4996686;28;20502;-81
2023/03/13 05:45:35;;;;;;;10.13;6.47;;;;;;;;;;4995823;28;20052;-81
2023/03/13 05:48:02;;;;;;;11.20;6.75;;;;;;;;;;5012605;28;20046;-81
2023/03/13 05:50:28;;;;;;;8.75;6.07;;;;;;;;;;5012464;28;20057;-81
2023/03/13 05:52:54;;;;;;;11.95;6.70;;;;;;;;;;5013614;28;20504;-80
2023/03/13 05:55:20;;;;;;;10.20;6.20;;;;;;;;;;5012886;28;20513;-81
2023/03/13 05:57:47;;;;;;;13.15;6.13;;;;;;;;;;4996128;28;20045;-80
2023/03/13 06:00:16;;;;;;;13.75;6.55;;;;;;;;;;5012482;28;20045;-78
2023/03/13 06:02:43;;;;;;;11.52;6.28;;;;;;;;;;5012461;28;20100;-78
2023/03/13 06:05:09;;;;;;;12.05;5.75;;;;;;;;;;5001022;28;20054;-78
2023/03/13 06:07:35;;;;;;;14.35;5.95;;;;;;;;;;4983729;28;20482;-78
2023/03/13 06:10:01;;;;;;;14.95;5.80;;;;;;;;;;5012093;28;20080;-78
2023/03/13 06:12:27;;;;;;;13.50;6.30;;;;;;;;;;5013066;28;20077;-78
2023/03/13 06:14:53;;;;;;;14.10;6.47;;;;;;;;;;5012061;28;20128;-78
2023/03/13 06:17:19;;;;;;;14.02;6.15;;;;;;;;;;5013232;28;20485;-78
2023/03/13 06:19:46;;;;;;;13.43;5.95;;;;;;;;;;5012086;28;20042;-77
2023/03/13 06:22:12;;;;;;;13.55;5.68;;;;;;;;;;4996218;28;20381;-81
2023/03/13 06:24:38;;;;;;;15.77;6.30;;;;;;;;;;4995418;28;20046;-78
2023/03/13 06:27:04;;;;;;;13.20;5.32;;;;;;;;;;5012203;28;20488;-78
2023/03/13 06:29:30;;;;;;;10.85;5.57;;;;;;;;;;4989179;28;20085;-81
2023/03/13 06:31:56;;;;;;;12.13;5.88;;;;;;;;;;4988426;28;20096;-81
2023/03/13 06:34:22;;;;;;;11.20;5.05;;;;;;;;;;4995622;28;20457;-80
2023/03/13 06:36:48;;;;;;;12.02;4.95;;;;;;;;;;4995715;28;20073;-81
2023/03/13 06:39:15;;;;;;;14.18;4.57;;;;;;;;;;5011914;28;20125;-80
2023/03/13 06:41:41;;;;;;;11.73;4.53;;;;;;;;;;4995487;28;20586;-81
2023/03/13 06:44:07;;;;;;;11.40;5.18;;;;;;;;;;4977127;28;20046;-80
2023/03/13 06:46:33;;;;;;;13.95;4.72;;;;;;;;;;4991523;28;20042;-80
2023/03/13 06:49:03;;;;;;;13.80;4.95;;;;;;;;;;4975918;28;20050;-81
2023/03/13 06:51:29;;;;;;;14.43;4.95;;;;;;;;;;4991816;28;20408;-81
2023/03/13 06:53:55;;;;;;;12.98;5.10;;;;;;;;;;4999858;28;20076;-81
2023/03/13 06:56:21;;;;;;;14.90;4.78;;;;;;;;;;4997551;28;20089;-78
2023/03/13 06:58:48;;;;;;;14.82;4.85;;;;;;;;;;4992093;28;20054;-77
2023/03/13 07:01:15;;;;;;;10.05;4.57;;;;;;;;;;4991394;28;20042;-78
2023/03/13 07:03:41;;;;;;;16.10;4.95;;;;;;;;;;4991498;28;20042;-78
2023/03/13 07:06:08;;;;;;;13.98;5.15;;;;;;;;;;5001348;28;20049;-80
2023/03/13 07:08:34;;;;;;;13.63;4.57;;;;;;;;;;4997404;28;20043;-81
2023/03/13 07:11:01;;;;;;;15.73;4.70;;;;;;;;;;4979593;28;20042;-80
2023/03/13 07:13:28;;;;;;;15.70;4.53;;;;;;;;;;5011255;28;20492;-81
2023/03/13 07:15:54;;;;;;;15.95;4.50;;;;;;;;;;5011451;28;20124;-81
2023/03/13 07:18:21;;;;;;;12.15;4.22;;;;;;;;;;4978116;28;20042;-81
2023/03/13 07:20:57;;;;;;;10.90;4.35;;;;;;;;;;5012228;28;20042;-81
2023/03/13 07:23:23;;;;;;;12.20;4.30;;;;;;;;;;4999557;28;20072;-81
2023/03/13 07:25:57;;;;;;;14.35;4.43;;;;;;;;;;5009330;28;20041;-81
2023/03/13 07:28:23;;;;;;;12.35;4.78;;;;;;;;;;5011552;28;20116;-81
2023/03/13 07:30:50;;;;;;;12.45;4.20;;;;;;;;;;5011134;28;20119;-81
2023/03/13 07:33:16;;;;;;;13.40;4.50;;;;;;;;;;4995144;28;20103;-81
2023/03/13 07:35:49;;;;;;;15.52;5.03;;;;;;;;;;4994680;28;20377;-81
2023/03/13 07:38:15;;;;;;;13.00;4.63;;;;;;;;;;5011583;28;20046;-81
2023/03/13 07:40:47;;;;;;;13.82;4.45;;;;;;;;;;5012155;28;20100;-81
2023/03/13 07:43:13;;;;;;;11.02;4.18;;;;;;;;;;5011559;28;20134;-81
2023/03/13 07:45:49;;;;;;;10.73;4.43;;;;;;;;;;5010790;28;20056;-81
2023/03/13 07:48:15;;;;;;;11.25;4.68;;;;;;;;;;4978571;28;20512;-81
2023/03/13 07:50:41;;;;;;;8.93;3.85;;;;;;;;;;4987651;28;20038;-81
2023/03/13 07:53:07;;;;;;;10.43;3.90;;;;;;;;;;5010583;28;20044;-81
2023/03/13 07:55:33;;;;;;;8.90;3.80;;;;;;;;;;5011095;28;20073;-81
2023/03/13 07:57:59;;;;;;;7.90;3.50;;;;;;;;;;4991839;28;20050;-81
2023/03/13 08:00:25;;;;;;;8.02;3.63;;;;;;;;;;4997270;28;20081;-81
2023/03/13 08:02:51;;;;;;;7.28;3.72;;;;;;;;;;5005616;28;20037;-81
2023/03/13 08:05:18;;;;;;;8.57;3.90;;;;;;;;;;5010745;28;20042;-81
2023/03/13 08:07:44;;;;;;;10.07;3.75;;;;;;;;;;5010485;28;20049;-80
2023/03/13 08:10:10;;;;;;;9.35;3.97;;;;;;;;;;5010883;28;20121;-81
2023/03/13 08:12:36;;;;;;;8.13;3.72;;;;;;;;;;5010488;28;20038;-81
2023/03/13 08:15:03;;;;;;;8.30;3.20;;;;;;;;;;5012057;28;20046;-81
2023/03/13 08:17:29;;;;;;;9.98;3.70;;;;;;;;;;5011092;28;20407;-81
2023/03/13 08:19:55;;;;;;;7.13;2.45;;;;;;;;;;5010527;28;20520;-81
2023/03/13 08:22:21;;;;;;;5.43;2.53;;;;;;;;;;4999189;28;20113;-81
2023/03/13 08:24:48;;;;;;;7.60;2.60;;;;;;;;;;5000129;28;20049;-81
2023/03/13 08:27:14;;;;;;;8.23;2.20;;;;;;;;;;4995202;28;20042;-81
2023/03/13 08:29:40;;;;;;;7.75;2.28;;;;;;;;;;4992524;28;20077;-81
2023/03/13 08:32:06;;;;;;;8.88;2.95;;;;;;;;;;4994438;28;20038;-81
2023/03/13 08:34:34;;;;;;;7.20;2.65;;;;;;;;;;5008155;28;20039;-81
2023/03/13 08:37:00;;;;;;;10.88;2.75;;;;;;;;;;4994886;28;20515;-81
2023/03/13 08:39:26;;;;;;;6.57;2.60;;;;;;;;;;4994616;28;20038;-81
2023/03/13 08:41:52;;;;;;;7.75;2.58;;;;;;;;;;5003921;28;20038;-81
2023/03/13 08:44:21;;;;;;;7.00;2.45;;;;;;;;;;4998371;28;20050;-81
2023/03/13 08:46:48;;;;;;;5.95;2.50;;;;;;;;;;4993854;28;20050;-81
2023/03/13 08:49:16;;;;;;;8.73;2.50;;;;;;;;;;4994688;28;20042;-81
2023/03/13 08:51:43;;;;;;;7.75;2.15;;;;;;;;;;5013513;28;20069;-82
2023/03/13 08:54:09;;;;;;;8.15;2.13;;;;;;;;;;5000787;28;20133;-81
2023/03/13 08:56:36;;;;;;;8.15;2.50;;;;;;;;;;4994289;28;20081;-81
2023/03/13 08:59:03;;;;;;;6.80;2.10;;;;;;;;;;4994049;28;20088;-81
2023/03/13 09:01:31;;;;;;;9.73;2.38;;;;;;;;;;4986054;28;20492;-81
2023/03/13 09:03:57;;;;;;;8.45;2.65;;;;;;;;;;4977233;28;20042;-81
2023/03/13 09:06:23;;;;;;;9.23;2.40;;;;;;;;;;5009726;28;20046;-81
2023/03/13 09:08:49;;;;;;;9.02;2.40;;;;;;;;;;5013355;28;20049;-80
2023/03/13 09:11:17;;;;;;;8.13;2.53;;;;;;;;;;5013649;28;20165;-81
2023/03/13 09:13:44;;;;;;;8.35;3.25;;;;;;;;;;5012624;28;20176;-80
2023/03/13 09:16:11;;;;;;;8.57;2.95;;;;;;;;;;5013216;28;20048;-81
2023/03/13 09:18:38;;;;;;;11.60;3.15;;;;;;;;;;5013076;28;20050;-80
2023/03/13 09:21:06;;;;;;;8.70;2.83;;;;;;;;;;4997201;28;20497;-81
2023/03/13 09:23:32;;;;;;;12.65;3.30;;;;;;;;;;4993808;28;20492;-78
2023/03/13 09:25:58;;;;;;;8.52;3.08;;;;;;;;;;4977051;28;20409;-78
2023/03/13 09:28:25;;;;;;;7.80;2.65;;;;;;;;;;4993388;28;20046;-78
2023/03/13 09:30:51;;;;;;;9.68;2.65;;;;;;;;;;4977248;28;20484;-78
2023/03/13 09:33:17;;;;;;;6.18;2.22;;;;;;;;;;4977402;28;20452;-78
2023/03/13 09:35:49;;;;;;;6.57;2.70;;;;;;;;;;4992941;28;20052;-78
2023/03/13 09:38:16;;;;;;;8.65;2.75;;;;;;;;;;4993222;28;20105;-78
2023/03/13 09:40:45;;;;;;;5.68;2.10;;;;;;;;;;4992636;28;20496;-78
2023/03/13 09:43:20;;;;;;;8.13;2.20;;;;;;;;;;4977062;28;20077;-78
2023/03/13 09:45:49;;;;;;;8.75;2.05;;;;;;;;;;4976555;28;20042;-78
2023/03/13 09:48:29;;;;;;;10.85;1.90;;;;;;;;;;4993154;28;20038;-78
2023/03/13 09:51:10;;;;;;;12.60;2.63;;;;;;;;;;4993116;28;20449;-78
2023/03/13 09:53:48;;;;;;;7.93;2.95;;;;;;;;;;4992576;28;20046;-78
2023/03/13 09:56:16;;;;;;;10.82;2.53;;;;;;;;;;4993394;28;20512;-78
2023/03/13 09:58:47;;;;;;;9.90;2.10;;;;;;;;;;4976599;28;20042;-78
2023/03/13 10:01:17;;;;;;;8.82;1.73;;;;;;;;;;4990912;28;20049;-78
2023/03/13 10:03:48;;;;;;;7.05;1.98;;;;;;;;;;4992685;28;20042;-81
2023/03/13 10:06:24;;;;;;;10.02;2.30;;;;;;;;;;4991015;28;20077;-81
2023/03/13 10:08:51;;;;;;;10.27;2.10;;;;;;;;;;5003529;28;20042;-81
2023/03/13 10:11:20;;;;;;;7.53;1.65;;;;;;;;;;4992995;28;20053;-81
2023/03/13 10:13:48;;;;;;;11.00;2.13;;;;;;;;;;4976382;28;20492;-78
2023/03/13 10:16:17;;;;;;;11.55;2.35;;;;;;;;;;4976478;28;20121;-78
2023/03/13 10:18:46;;;;;;;10.05;2.20;;;;;;;;;;4992591;28;20041;-78
2023/03/13 10:21:16;;;;;;;12.57;2.30;;;;;;;;;;4991903;28;20046;-78
2023/03/13 10:23:51;;;;;;;10.52;2.20;;;;;;;;;;4992473;28;20042;-81
2023/03/13 10:26:20;;;;;;;11.20;2.58;;;;;;;;;;4992339;28;20125;-81
2023/03/13 10:28:47;;;;;;;10.88;2.10;;;;;;;;;;4992198;28;20042;-81
2023/03/13 10:31:33;;;;;;;12.20;2.63;;;;;;;;;;4992354;28;20133;-81
2023/03/13 10:34:06;;;;;;;11.68;2.25;;;;;;;;;;4991600;28;20038;-81
2023/03/13 10:36:39;;;;;;;9.55;2.30;;;;;;;;;;4975928;28;20042;-81
2023/03/13 10:39:07;;;;;;;11.05;2.45;;;;;;;;;;4992007;28;20049;-81
2023/03/13 10:41:35;;;;;;;12.15;2.83;;;;;;;;;;4992036;28;20034;-78
2023/03/13 10:44:15;;;;;;;12.05;2.17;;;;;;;;;;4977192;28;20049;-78
2023/03/13 10:46:42;;;;;;;13.27;2.40;;;;;;;;;;5012035;28;20052;-81
2023/03/13 10:49:16;;;;;;;11.55;2.42;;;;;;;;;;4995263;28;20046;-81
2023/03/13 10:51:47;;;;;;;9.38;1.90;;;;;;;;;;4975586;28;20045;-81
2023/03/13 10:54:22;;;;;;;9.25;2.42;;;;;;;;;;4992491;28;20409;-78
2023/03/13 10:56:49;;;;;;;11.38;1.83;;;;;;;;;;4975846;28;20056;-78
2023/03/13 10:59:23;;;;;;;10.65;2.35;;;;;;;;;;4975298;28;20046;-81
2023/03/13 11:01:50;;;;;;;8.73;1.90;;;;;;;;;;4985601;28;20042;-78
2023/03/13 11:04:30;;;;;;;8.15;1.83;;;;;;;;;;4991041;28;20042;-78
2023/03/13 11:07:25;;;;;;;8.43;2.20;;;;;;;;;;4993789;28;20046;-78
2023/03/13 11:10:03;;;;;;;6.70;1.40;;;;;;;;;;4991091;28;20064;-78
2023/03/13 11:12:35;;;;;;;6.28;1.70;;;;;;;;;;5011152;28;20037;-78
2023/03/13 11:15:01;;;;;;;12.60;2.03;;;;;;;;;;5010885;28;20092;-78
2023/03/13 11:17:27;;;;;;;5.55;1.60;;;;;;;;;;5000487;28;20133;-77
2023/03/13 11:20:11;;;;;;;8.65;1.92;;;;;;;;;;4991414;28;20133;-81
2023/03/13 11:22:50;;;;;;;8.77;1.98;;;;;;;;;;5005206;28;20076;-78
2023/03/13 11:25:21;;;;;;;7.57;2.00;;;;;;;;;;4991358;28;20500;-81
2023/03/13 11:27:57;;;;;;;7.93;1.90;;;;;;;;;;4991406;28;20046;-81
2023/03/13 11:30:42;;;;;;;6.18;1.40;;;;;;;;;;4992106;28;20077;-81
2023/03/13 11:33:17;;;;;;;8.32;1.50;;;;;;;;;;4990906;28;20070;-81
2023/03/13 11:35:48;;;;;;;5.43;1.58;;;;;;;;;;4991603;28;20133;-81
2023/03/13 11:38:20;;;;;;;5.65;1.30;;;;;;;;;;4999202;28;20038;-81
2023/03/13 11:40:53;;;;;;;7.50;1.63;;;;;;;;;;4996938;28;20394;-81
2023/03/13 11:43:19;;;;;;;5.47;1.80;;;;;;;;;;4999201;28;20053;-81
2023/03/13 11:45:53;;;;;;;7.35;1.52;;;;;;;;;;4997194;28;20042;-81
2023/03/13 11:48:51;;;;;;;8.63;1.60;;;;;;;;;;4990948;28;20124;-81
2023/03/13 11:51:30;;;;;;;8.20;1.92;;;;;;;;;;4949230;28;20093;-78
2023/03/13 11:53:56;;;;;;;6.70;1.98;;;;;;;;;;4990819;28;20053;-78
2023/03/13 11:56:42;;;;;;;8.38;1.50;;;;;;;;;;4990891;28;20030;-78
2023/03/13 11:59:27;;;;;;;11.43;1.60;;;;;;;;;;4990564;28;20101;-78
2023/03/13 12:01:56;;;;;;;10.68;1.83;;;;;;;;;;4986236;28;20053;-80
2023/03/13 12:04:44;;;;;;;9.50;1.90;;;;;;;;;;4991933;28;20082;-80
2023/03/13 12:07:29;;;;;;;10.07;2.00;;;;;;;;;;4982833;28;20030;-81
2023/03/13 12:09:59;;;;;;;10.73;1.83;;;;;;;;;;4998175;28;20045;-81
2023/03/13 12:12:25;;;;;;;8.27;1.98;;;;;;;;;;5014366;28;20415;-80
2023/03/13 12:14:55;;;;;;;10.40;2.15;;;;;;;;;;5014481;28;20559;-81
2023/03/13 12:17:21;;;;;;;7.13;1.73;;;;;;;;;;4987928;28;20046;-80
2023/03/13 12:19:58;;;;;;;8.45;2.30;;;;;;;;;;4994535;28;20046;-81
2023/03/13 12:22:50;;;;;;;10.27;2.33;;;;;;;;;;5003867;28;20556;-80
2023/03/13 12:25:20;;;;;;;10.27;2.45;;;;;;;;;;4965589;28;20049;-80
2023/03/13 12:27:49;;;;;;;10.77;2.10;;;;;;;;;;4994628;28;20101;-80
2023/03/13 12:30:21;;;;;;;10.68;1.98;;;;;;;;;;4994010;28;20039;-81
2023/03/13 12:32:57;;;;;;;10.18;2.15;;;;;;;;;;4994558;28;20050;-80
2023/03/13 12:35:27;;;;;;;9.35;2.35;;;;;;;;;;4993827;28;20109;-80
2023/03/13 12:37:56;;;;;;;8.73;2.10;;;;;;;;;;4978404;28;20070;-80
2023/03/13 12:40:33;;;;;;;11.35;2.30;;;;;;;;;;4977665;28;20046;-80
2023/03/13 12:43:04;;;;;;;10.63;2.50;;;;;;;;;;4994416;28;20054;-80
2023/03/13 12:45:31;;;;;;;13.55;2.75;;;;;;;;;;4993719;28;20559;-80
2023/03/13 12:48:10;;;;;;;15.95;3.20;;;;;;;;;;4978080;28;20042;-80
2023/03/13 12:50:48;;;;;;;18.23;2.97;;;;;;;;;;4994132;28;20038;-80
2023/03/13 12:53:15;;;;;;;13.50;2.45;;;;;;;;;;4993580;28;20129;-80
2023/03/13 12:55:49;;;;;;;16.48;3.00;;;;;;;;;;4994050;28;20042;-80
2023/03/13 12:58:24;;;;;;;15.57;3.17;;;;;;;;;;4977873;28;20077;-80
2023/03/13 13:00:52;;;;;;;18.15;3.38;;;;;;;;;;4972642;28;20046;-80
2023/03/13 13:03:18;;;;;;;19.55;3.38;;;;;;;;;;4977694;28;20060;-80
2023/03/13 13:06:02;;;;;;;18.30;3.20;;;;;;;;;;5001428;28;20042;-80
2023/03/13 13:08:32;;;;;;;10.60;2.97;;;;;;;;;;5013063;28;20050;-80
2023/03/13 13:11:17;;;;;;;22.08;4.30;;;;;;;;;;5013293;28;20048;-80
2023/03/13 13:13:43;;;;;;;15.77;3.33;;;;;;;;;;5013277;28;20042;-80
2023/03/13 13:16:17;;;;;;;14.63;3.40;;;;;;;;;;5011639;28;20042;-80
2023/03/13 13:18:43;;;;;;;16.23;3.70;;;;;;;;;;5013222;28;20042;-80
2023/03/13 13:21:15;;;;;;;17.17;3.40;;;;;;;;;;5005488;28;20084;-80
2023/03/13 13:23:49;;;;;;;22.30;3.50;;;;;;;;;;4993478;28;20053;-81
2023/03/13 13:26:32;;;;;;;25.13;3.50;;;;;;;;;;4992870;28;20607;-78
2023/03/13 13:29:00;;;;;;;16.83;3.65;;;;;;;;;;5007399;28;20409;-78
2023/03/13 13:31:44;;;;;;;17.33;3.15;;;;;;;;;;4993504;28;20477;-78
2023/03/13 13:34:35;;;;;;;16.33;3.10;;;;;;;;;;4977316;28;20392;-78
2023/03/13 13:37:03;;;;;;;12.23;2.83;;;;;;;;;;4993758;28;20057;-77
2023/03/13 13:39:29;;;;;;;16.67;2.97;;;;;;;;;;4976709;28;20042;-80
2023/03/13 13:41:55;;;;;;;14.20;3.13;;;;;;;;;;4976951;28;20042;-80
2023/03/13 13:44:23;;;;;;;16.88;3.13;;;;;;;;;;4993013;28;20552;-80
2023/03/13 13:46:49;;;;;;;20.95;3.30;;;;;;;;;;4993051;28;20527;-80
2023/03/13 13:49:20;;;;;;;18.17;3.60;;;;;;;;;;4976823;28;20042;-81
2023/03/13 13:52:07;;;;;;;15.68;3.20;;;;;;;;;;4993294;28;20049;-80
2023/03/13 13:54:53;;;;;;;14.77;2.90;;;;;;;;;;4979570;28;20058;-80
2023/03/13 13:57:19;;;;;;;;;;;;;;;;;;4977049;28;20508;-80
2023/03/13 13:59:45;;;;;;;;;;;;;;;;;;4994596;28;20016;-80
2023/03/13 14:02:12;;;;;;;;;;;;;;;;;;4968192;28;19969;-80
2023/03/13 14:04:38;;;;;;;;;;;;;;;;;;4987283;28;19951;-80
2023/03/13 14:07:04;;;;;;;;;;;;;;;;;;4997135;28;19917;-80
2023/03/13 14:09:30;;;;;;;;;;;;;;;;;;5012300;28;19921;-80
2023/03/13 14:11:56;;;;;;;;;;;;;;;;;;4996071;28;19917;-80
2023/03/13 14:14:22;;;;;;;;;;;;;;;;;;5013574;28;19917;-80
2023/03/13 14:16:48;;;;;;;;;;;;;;;;;;4996162;28;20296;-80
2023/03/13 14:19:14;;;;;;;;;;;;;;;;;;4988117;28;19917;-80
2023/03/13 14:21:40;;;;;;;;;;;;;;;;;;4992574;28;20045;-80
2023/03/13 14:24:06;;;;;;;;;;;;;;;;;;4976487;28;20392;-80
2023/03/13 14:26:32;;;;;;;;;;;;;;;;;;4992933;28;20277;-80
2023/03/13 14:28:58;;;;;;;;;;;;;;;;;;4976568;28;19918;-80
2023/03/13 14:31:24;;;;;;;;;;;;;;;;;;4992306;28;19924;-80
2023/03/13 14:33:50;;;;;;;;;;;;;;;;;;4992914;28;20432;-80
2023/03/13 14:36:16;;;;;;;;;;;;;;;;;;4976452;28;20009;-80
2023/03/13 14:38:43;;;;;;;;;;;;;;;;;;4992291;28;19918;-80
2023/03/13 14:41:09;;;;;;;;;;;;;;;;;;4993500;28;19965;-80
2023/03/13 14:43:35;;;;;;;;;;;;;;;;;;4976579;28;19957;-80
2023/03/13 14:46:01;;;;;;;;;;;;;;;;;;4976000;28;19972;-80